^^
Datos históricos de la estación: Murcia-Puente Tocinos
Diario Informe para Mayo 5, 2019 Unidades:  Métrico    Ingés   Ambas
Diario Semanal Mensual Anual
  Máxima: Mínima: Promedio:
Temperatura: 34.6 °C 24.3 °C 28.5 °C
Punto de rocio: 23 °C 20.9 °C 22.3 °C
Humedad: 86% 49.6% 71%
Velocidad viento: 19.8km/h 0km/h 8.8km/h
Racha viento: 37km/h - -
Viento- - Este
Presión: 1013.1 hPa 1009.0 hPa -
Precipitación: 0.0 mm    
 
 
Tabla de datos para Mayo 5, 2019
Hora Temperatura Punto de rocio Presión Viento Velocidad viento Racha viento Humedad Intensidad lluvia(por hora) Nubes
00:04 26.4 °C 21.5 °C 1013.0 hPa NE 9.5 km/h 15.6 km/h 74.7% 0.0 mm
00:09 26.3 °C 21.6 °C 1013.0 hPa NNE 9.7 km/h 18.5 km/h 75.6% 0.0 mm
00:14 26.3 °C 21.8 °C 1013.0 hPa NE 10 km/h 19.3 km/h 76.5% 0.0 mm
00:19 26.2 °C 21.8 °C 1013.0 hPa NE 10.1 km/h 19.3 km/h 77% 0.0 mm
00:24 26.2 °C 21.8 °C 1013.0 hPa NNE 10.3 km/h 14.5 km/h 77% 0.0 mm
00:29 26.2 °C 22 °C 1013.0 hPa NNE 9.4 km/h 12.9 km/h 77.9% 0.0 mm
00:34 26.1 °C 22 °C 1013.1 hPa NNE 7.6 km/h 14.8 km/h 78.1% 0.0 mm
00:39 26.1 °C 22.2 °C 1013.1 hPa NE 7.6 km/h 14.8 km/h 79% 0.0 mm
00:44 26.1 °C 22.3 °C 1013.1 hPa NE 7.6 km/h 14.8 km/h 79.4% 0.0 mm
00:49 26.1 °C 22.3 °C 1013.1 hPa NNE 7.6 km/h 13 km/h 80% 0.0 mm
00:54 26 °C 22.4 °C 1013.1 hPa NNE 7.6 km/h 16.7 km/h 80.9% 0.0 mm
00:59 25.9 °C 22.5 °C 1013.1 hPa NNE 8.3 km/h 16.7 km/h 81.5% 0.0 mm
01:04 25.8 °C 22.5 °C 1013.1 hPa NE 9.5 km/h 16.1 km/h 82% 0.0 mm
01:09 25.8 °C 22.5 °C 1013.0 hPa NE 9.5 km/h 15.6 km/h 82% 0.0 mm
01:14 25.8 °C 22.5 °C 1013.0 hPa NNE 9.5 km/h 16.7 km/h 82% 0.0 mm
01:19 25.8 °C 22.5 °C 1013.0 hPa NE 9.1 km/h 16.1 km/h 82.2% 0.0 mm
01:24 25.8 °C 22.7 °C 1012.8 hPa NNE 8.4 km/h 13 km/h 83% 0.0 mm
01:29 25.7 °C 22.6 °C 1012.8 hPa NE 7.8 km/h 12.9 km/h 83% 0.0 mm
01:34 25.7 °C 22.6 °C 1012.9 hPa NE 6.9 km/h 11.3 km/h 83% 0.0 mm
01:39 25.7 °C 22.6 °C 1012.9 hPa NE 6.9 km/h 11.3 km/h 83% 0.0 mm
01:44 25.7 °C 22.7 °C 1012.9 hPa NE 6.9 km/h 11.9 km/h 83.8% 0.0 mm
01:49 25.6 °C 22.7 °C 1012.9 hPa NE 6.9 km/h 13 km/h 84% 0.0 mm
01:54 25.6 °C 22.7 °C 1012.9 hPa NE 6.9 km/h 12.9 km/h 84% 0.0 mm
01:59 25.6 °C 22.7 °C 1012.9 hPa NE 7.2 km/h 11.3 km/h 84% 0.0 mm
02:04 25.5 °C 22.6 °C 1012.9 hPa NE 7.6 km/h 9.7 km/h 84% 0.0 mm
02:09 25.5 °C 22.6 °C 1012.7 hPa NE 6.9 km/h 11.1 km/h 84% 0.0 mm
02:14 25.4 °C 22.7 °C 1012.7 hPa NE 5.8 km/h 11.3 km/h 85% 0.0 mm
02:19 25.3 °C 22.6 °C 1012.7 hPa NE 6.2 km/h 11.9 km/h 85% 0.0 mm
02:24 25.3 °C 22.6 °C 1012.6 hPa NE 6.9 km/h 11.3 km/h 85% 0.0 mm
02:29 25.3 °C 22.6 °C 1012.6 hPa NE 6.5 km/h 10 km/h 85% 0.0 mm
02:34 25.2 °C 22.5 °C 1012.6 hPa NE 5.8 km/h 11.1 km/h 85% 0.0 mm
02:39 25.2 °C 22.5 °C 1012.5 hPa NNE 6 km/h 11.3 km/h 85% 0.0 mm
02:44 25.2 °C 22.5 °C 1012.5 hPa NNE 6.5 km/h 9.7 km/h 85% 0.0 mm
02:49 25.2 °C 22.5 °C 1012.5 hPa NNE 5.9 km/h 9.7 km/h 85% 0.0 mm
02:54 25.2 °C 22.5 °C 1012.4 hPa NNO 5 km/h 8 km/h 85% 0.0 mm
02:59 25.2 °C 22.5 °C 1012.4 hPa NNE 4.3 km/h 8 km/h 85% 0.0 mm
03:04 25.2 °C 22.5 °C 1012.4 hPa NNO 3.2 km/h 8 km/h 85% 0.0 mm
03:09 25.2 °C 22.6 °C 1012.3 hPa North 3.2 km/h 8.4 km/h 85.6% 0.0 mm
03:14 25.2 °C 22.7 °C 1012.3 hPa NNO 3.2 km/h 8.4 km/h 86% 0.0 mm
03:19 25.2 °C 22.6 °C 1012.3 hPa North 3.5 km/h 8 km/h 85.8% 0.0 mm
03:24 25.2 °C 22.7 °C 1012.3 hPa NO 3.9 km/h 6.4 km/h 86% 0.0 mm
03:29 25.2 °C 22.7 °C 1012.3 hPa North 3.5 km/h 5.6 km/h 86% 0.0 mm
03:34 25.2 °C 22.7 °C 1012.3 hPa NE 2.9 km/h 4.8 km/h 86% 0.0 mm
03:39 25.2 °C 22.7 °C 1012.1 hPa NNE 2.7 km/h 7.4 km/h 86% 0.0 mm
03:44 25.2 °C 22.7 °C 1012.1 hPa NNO 2.2 km/h 8 km/h 86% 0.0 mm
03:49 25.2 °C 22.7 °C 1012.1 hPa NNO 2.5 km/h 6.4 km/h 86% 0.0 mm
03:54 25.2 °C 22.7 °C 1012.0 hPa NNO 2.9 km/h   86% 0.0 mm
03:59 25.2 °C 22.7 °C 1012.0 hPa NNO 1.8 km/h 6.4 km/h 86% 0.0 mm
04:04 25.2 °C 22.7 °C 1012.0 hPa Calm   8 km/h 86% 0.0 mm
04:09 25.1 °C 22.6 °C 1011.9 hPa Calm   4.8 km/h 86% 0.0 mm
04:14 25.1 °C 22.6 °C 1011.9 hPa Calm     86% 0.0 mm
04:19 25.2 °C 22.6 °C 1011.9 hPa Calm     86% 0.0 mm
04:24 25.2 °C 22.7 °C 1011.8 hPa Calm     86% 0.0 mm
04:29 25.2 °C 22.7 °C 1011.8 hPa Calm     86% 0.0 mm
04:34 25.2 °C 22.7 °C 1011.8 hPa Calm     86% 0.0 mm
04:39 25.2 °C 22.7 °C 1011.7 hPa SO 0.8 km/h 7.6 km/h 86% 0.0 mm
04:44 25.2 °C 22.7 °C 1011.7 hPa SO 2.2 km/h 8 km/h 86% 0.0 mm
04:49 25.2 °C 22.7 °C 1011.7 hPa SSO 3.1 km/h 8 km/h 86% 0.0 mm
04:54 25.2 °C 22.7 °C 1011.7 hPa Sur 4.7 km/h 8 km/h 86% 0.0 mm
04:59 25.2 °C 22.7 °C 1011.7 hPa Sur 4.3 km/h 9.5 km/h 86% 0.0 mm
05:04 25.2 °C 22.7 °C 1011.7 hPa Sur 3.9 km/h 9.7 km/h 86% 0.0 mm
05:09 25.2 °C 22.6 °C 1011.6 hPa SSE 4.8 km/h 9.7 km/h 86% 0.0 mm
05:14 25.1 °C 22.6 °C 1011.6 hPa Sur 6.5 km/h 8.4 km/h 86% 0.0 mm
05:19 25.1 °C 22.6 °C 1011.6 hPa Sur 5.8 km/h 8 km/h 86% 0.0 mm
05:24 25.2 °C 22.6 °C 1011.4 hPa SSO 4.7 km/h 8 km/h 86% 0.0 mm
05:29 25.2 °C 22.7 °C 1011.4 hPa SO 4 km/h 6.9 km/h 86% 0.0 mm
05:34 25.2 °C 22.7 °C 1011.5 hPa OSO 2.9 km/h 8 km/h 86% 0.0 mm
05:39 25.3 °C 22.7 °C 1011.5 hPa SO 2.9 km/h 8 km/h 86% 0.0 mm
05:44 25.3 °C 22.8 °C 1011.5 hPa SO 2.9 km/h 9.3 km/h 86% 0.0 mm
05:49 25.3 °C 22.8 °C 1011.5 hPa OSO 3.3 km/h 9.7 km/h 86% 0.0 mm
05:54 25.3 °C 22.8 °C 1011.4 hPa OSO 3.9 km/h 8 km/h 86% 0.0 mm
05:59 25.3 °C 22.8 °C 1011.4 hPa OSO 3.5 km/h 8 km/h 86% 0.0 mm
06:04 25.3 °C 22.8 °C 1011.5 hPa OSO 2.9 km/h 3.2 km/h 85.9% 0.0 mm
06:09 25.3 °C 22.6 °C 1011.5 hPa OSO 1.9 km/h   85% 0.0 mm
06:14 25.3 °C 22.6 °C 1011.5 hPa Calm   7.4 km/h 85% 0.0 mm
06:19 25.3 °C 22.6 °C 1011.6 hPa SSO 1 km/h 8 km/h 85% 0.0 mm
06:24 25.3 °C 22.6 °C 1011.6 hPa ONO 2.9 km/h 7.4 km/h 85% 0.0 mm
06:29 25.2 °C 22.5 °C 1011.6 hPa NO 2.9 km/h 8 km/h 85% 0.0 mm
06:34 25.2 °C 22.5 °C 1011.8 hPa NO 2.9 km/h 3.2 km/h 85% 0.0 mm
06:39 25.1 °C 22.4 °C 1011.8 hPa NO 1.9 km/h   85% 0.0 mm
06:44 25.1 °C 22.3 °C 1011.8 hPa Calm   5.6 km/h 84.9% 0.0 mm
06:49 24.9 °C 22.2 °C 1011.8 hPa ENE 0.8 km/h 5.6 km/h 84.9% 0.0 mm
06:54 24.8 °C 22 °C 1011.8 hPa ENE 2.2 km/h 7.4 km/h 84.4% 0.0 mm
06:59 24.7 °C 21.9 °C 1011.8 hPa ESE 2.6 km/h 8 km/h 84% 0.0 mm
07:04 24.6 °C 21.7 °C 1012.0 hPa ESE 3.2 km/h 8 km/h 84% 0.0 mm
07:09 24.6 °C 21.7 °C 1012.0 hPa ESE 3.7 km/h 8.4 km/h 84% 0.0 mm
07:14 24.5 °C 21.6 °C 1012.0 hPa ESE 4.7 km/h 8.7 km/h 84% 0.0 mm
07:19 24.4 °C 21.5 °C 1012.2 hPa ESE 5.1 km/h 9.7 km/h 84% 0.0 mm
07:24 24.4 °C 21.5 °C 1012.2 hPa ESE 5.8 km/h 10 km/h 84% 0.0 mm
07:29 24.3 °C 21.4 °C 1012.2 hPa Este 5.8 km/h 11.9 km/h 84% 0.0 mm
07:34 24.3 °C 21.4 °C 1012.5 hPa Este 5.8 km/h 11.3 km/h 84% 0.0 mm
07:39 24.3 °C 21.4 °C 1012.5 hPa NE 6 km/h 11.3 km/h 84% 0.0 mm
07:44 24.3 °C 21.4 °C 1012.5 hPa NE 6.5 km/h 9.7 km/h 84% 0.0 mm
07:49 24.4 °C 21.5 °C 1012.6 hPa NNE 5.8 km/h 8.4 km/h 84% 0.0 mm
07:54 24.4 °C 21.7 °C 1012.6 hPa NE 4.7 km/h 10 km/h 84.8% 0.0 mm
07:59 24.4 °C 21.7 °C 1012.6 hPa NE 4.8 km/h 11.1 km/h 85% 0.0 mm
08:04 24.5 °C 21.8 °C 1012.8 hPa ENE 5 km/h 11.3 km/h 85% 0.0 mm
08:09 24.7 °C 22 °C 1012.8 hPa Este 5.5 km/h 14.8 km/h 85% 0.0 mm
08:14 24.8 °C 22.1 °C 1012.8 hPa Este 6.5 km/h 14.5 km/h 84.9% 0.0 mm
08:19 25 °C 22.1 °C 1012.9 hPa Este 6.5 km/h 9.7 km/h 84.1% 0.0 mm
08:24 25.2 °C 22.1 °C 1012.9 hPa Este 6.5 km/h 8.7 km/h 83.2% 0.0 mm
08:29 25.3 °C 22.2 °C 1012.9 hPa Este 5.8 km/h 9.7 km/h 83% 0.0 mm
08:34 25.4 °C 22.3 °C 1012.9 hPa ENE 4.7 km/h 8 km/h 83% 0.0 mm
08:39 25.7 °C 22.4 °C 1012.9 hPa NE 4 km/h 6.9 km/h 82.3% 0.0 mm
08:44 25.9 °C 22.6 °C 1012.9 hPa NE 2.9 km/h 8 km/h 81.9% 0.0 mm
08:49 26.1 °C 22.6 °C 1013.0 hPa NE 3.6 km/h 8 km/h 81% 0.0 mm
08:54 26.3 °C 22.5 °C 1013.0 hPa NNE 4.7 km/h 11.1 km/h 80% 0.0 mm
08:59 26.3 °C 22.5 °C 1013.0 hPa NNE 4.8 km/h 11.3 km/h 79.8% 0.0 mm
09:04 26.3 °C 22.5 °C 1013.0 hPa NE 5 km/h 9.7 km/h 79.7% 0.0 mm
09:09 26.3 °C 22.5 °C 1013.0 hPa NE 5.3 km/h 9.3 km/h 79.8% 0.0 mm
09:14 26.4 °C 22.4 °C 1013.0 hPa NE 5.8 km/h 11.9 km/h 78.7% 0.0 mm
09:19 26.4 °C 22.4 °C 1013.0 hPa NE 6 km/h 11.3 km/h 78.8% 0.0 mm
09:24 26.6 °C 22.4 °C 1012.9 hPa NNE 6.5 km/h 11.3 km/h 78% 0.0 mm
09:29 26.7 °C 22.5 °C 1012.9 hPa NNE 6.5 km/h 13 km/h 78% 0.0 mm
09:34 26.7 °C 22.6 °C 1012.9 hPa NNE 6.5 km/h 12.9 km/h 78% 0.0 mm
09:39 26.8 °C 22.7 °C 1012.9 hPa NE 6.6 km/h 15.6 km/h 78% 0.0 mm
09:44 26.7 °C 22.6 °C 1012.9 hPa NE 6.9 km/h 16.1 km/h 78% 0.0 mm
09:49 26.8 °C 22.6 °C 1012.9 hPa NNE 8.1 km/h 16.7 km/h 78% 0.0 mm
09:54 26.8 °C 22.7 °C 1012.9 hPa NE 10 km/h 17.2 km/h 78% 0.0 mm
09:59 26.9 °C 22.6 °C 1012.9 hPa NNE 9.3 km/h 17.7 km/h 77.5% 0.0 mm
10:04 27 °C 22.6 °C 1013.1 hPa NNE 8.4 km/h 16.1 km/h 77% 0.0 mm
10:09 27 °C 22.6 °C 1013.1 hPa NNE 8.8 km/h 14.5 km/h 76.9% 0.0 mm
10:14 27.2 °C 22.6 °C 1013.1 hPa NE 9.5 km/h 14.5 km/h 76% 0.0 mm
10:19 27.3 °C 22.5 °C 1013.1 hPa NNE 8.6 km/h 12.9 km/h 75.1% 0.0 mm
10:24 27.6 °C 22.7 °C 1013.0 hPa NNE 6.9 km/h 13 km/h 74.7% 0.0 mm
10:29 27.7 °C 22.6 °C 1013.0 hPa NE 7.2 km/h 14.8 km/h 74% 0.0 mm
10:34 27.7 °C 22.5 °C 1013.0 hPa North 7.6 km/h 14.5 km/h 73.3% 0.0 mm
10:39 27.8 °C 22.5 °C 1013.0 hPa NNO 7.2 km/h 13.7 km/h 72.9% 0.0 mm
10:44 28.1 °C 22.6 °C 1013.0 hPa NE 6.5 km/h 15.6 km/h 72.5% 0.0 mm
10:49 28.2 °C 22.6 °C 1013.0 hPa ENE 6.6 km/h 16.1 km/h 71.7% 0.0 mm
10:54 28.4 °C 22.5 °C 1012.9 hPa NNE 6.9 km/h 14.8 km/h 70.6% 0.0 mm
10:59 28.4 °C 22.4 °C 1012.9 hPa NE 6.9 km/h 14.5 km/h 70.1% 0.0 mm
11:04 28.3 °C 22.3 °C 1012.9 hPa NE 6.9 km/h 11.3 km/h 69.8% 0.0 mm
11:09 28.4 °C 22.4 °C 1012.8 hPa NE 6.9 km/h 13 km/h 70% 0.0 mm
11:14 28.6 °C 22.3 °C 1012.8 hPa NE 6.9 km/h 12.9 km/h 69.1% 0.0 mm
11:19 28.7 °C 22.3 °C 1013.0 hPa NE 6.9 km/h 14.8 km/h 68.3% 0.0 mm
11:24 28.7 °C 22.2 °C 1013.0 hPa NE 6.9 km/h 16.7 km/h 68% 0.0 mm
11:29 28.8 °C 22.3 °C 1013.0 hPa NNO 6.8 km/h 16.1 km/h 68% 0.0 mm
11:34 29 °C 22.3 °C 1013.0 hPa NE 5.8 km/h 11.9 km/h 67.2% 0.0 mm
11:39 29.1 °C 22.2 °C 1012.9 hPa North 5.9 km/h 11.3 km/h 66.2% 0.0 mm
11:44 29.3 °C 22.3 °C 1012.9 hPa NNE 6.4 km/h 11.9 km/h 66.2% 0.0 mm
11:49 29.3 °C 22.1 °C 1012.9 hPa North 6.3 km/h 11.9 km/h 65.2% 0.0 mm
11:54 29.4 °C 22.2 °C 1012.8 hPa NNO 5 km/h 11.3 km/h 65.1% 0.0 mm
11:59 29.7 °C 22.2 °C 1012.8 hPa NE 5.3 km/h 13 km/h 64.3% 0.0 mm
12:04 29.7 °C 22.2 °C 1012.8 hPa NNO 6.4 km/h 12.9 km/h 64% 0.0 mm
12:09 30 °C 22.3 °C 1012.6 hPa NNE 6.4 km/h 15.6 km/h 63.6% 0.0 mm
12:14 30 °C 22.2 °C 1012.6 hPa NE 5.8 km/h 18.5 km/h 63.1% 0.0 mm
12:19 29.9 °C 22.4 °C 1012.6 hPa NE 6.2 km/h 19.3 km/h 64.1% 0.0 mm
12:24 30.1 °C 22.3 °C 1012.5 hPa NNE 8.4 km/h 14.5 km/h 63.1% 0.0 mm
12:29 30.3 °C 22.3 °C 1012.5 hPa NE 8.2 km/h 17.2 km/h 62.2% 0.0 mm
12:34 30.4 °C 22.3 °C 1012.5 hPa NNE 7.6 km/h 17.7 km/h 62% 0.0 mm
12:39 30.4 °C 22.2 °C 1012.3 hPa North 7.7 km/h 17.7 km/h 61.7% 0.0 mm
12:44 30.6 °C 22.4 °C 1012.3 hPa NE 8.7 km/h 20.9 km/h 61.6% 0.0 mm
12:49 30.6 °C 22.3 °C 1012.3 hPa NNE 8.7 km/h 20.9 km/h 61.3% 0.0 mm
12:54 30.7 °C 22.3 °C 1012.2 hPa NNE 8.7 km/h 14.8 km/h 60.8% 0.0 mm
12:59 30.8 °C 22.3 °C 1012.2 hPa North 8.5 km/h 14.5 km/h 60.4% 0.0 mm
13:04 31.1 °C 22.4 °C 1012.2 hPa NE 7.6 km/h 16.7 km/h 60% 0.0 mm
13:09 31.2 °C 22.3 °C 1012.0 hPa North 7.7 km/h 16.1 km/h 59.4% 0.0 mm
13:14 31.3 °C 22.5 °C 1012.0 hPa NNE 8.4 km/h 16.7 km/h 59.7% 0.0 mm
13:19 31.4 °C 22.5 °C 1012.0 hPa North 8.4 km/h 18.5 km/h 59.2% 0.0 mm
13:24 31.6 °C 22.6 °C 1011.9 hPa NNE 8.7 km/h 19.3 km/h 58.9% 0.0 mm
13:29 31.4 °C 22.5 °C 1011.9 hPa NE 9.2 km/h 20.4 km/h 59% 0.0 mm
13:34 31.6 °C 22.6 °C 1011.9 hPa NE 11.9 km/h 20.9 km/h 58.8% 0.0 mm
13:39 31.8 °C 22.5 °C 1011.6 hPa NE 11.5 km/h 19.8 km/h 58% 0.0 mm
13:44 32 °C 22.7 °C 1011.6 hPa NNE 9.5 km/h 20.9 km/h 58% 0.0 mm
13:49 32.2 °C 22.6 °C 1011.6 hPa NE 9.6 km/h 18.5 km/h 57.2% 0.0 mm
13:54 32.4 °C 22.6 °C 1011.3 hPa NNE 10 km/h 20.9 km/h 56.4% 0.0 mm
13:59 32.5 °C 22.6 °C 1011.3 hPa NNE 10.2 km/h 22.2 km/h 56% 0.0 mm
14:04 32.6 °C 22.7 °C 1011.3 hPa NE 11.1 km/h 22.5 km/h 56% 0.0 mm
14:09 32.7 °C 22.7 °C 1011.1 hPa NE 11 km/h 22.5 km/h 55.7% 0.0 mm
14:14 33.1 °C 22.7 °C 1011.1 hPa NE 10.3 km/h 18.5 km/h 54.6% 0.0 mm
14:19 33.2 °C 22.6 °C 1011.1 hPa NNE 10.3 km/h 19.3 km/h 54% 0.0 mm
14:24 33.3 °C 22.6 °C 1010.9 hPa NNE 10.3 km/h 19.3 km/h 53.8% 0.0 mm
14:29 33.4 °C 22.5 °C 1010.8 hPa ENE 10.3 km/h 24.1 km/h 52.9% 0.0 mm
14:34 33.6 °C 22.4 °C 1010.8 hPa NE 10 km/h 24.1 km/h 52.1% 0.0 mm
14:39 33.7 °C 22.4 °C 1010.6 hPa North 10.3 km/h 24.5 km/h 52% 0.0 mm
14:44 33.7 °C 22.5 °C 1010.6 hPa NE 12.2 km/h 26.2 km/h 52% 0.0 mm
14:49 33.8 °C 22.4 °C 1010.6 hPa NE 12.8 km/h 28.2 km/h 51.5% 0.0 mm
14:54 33.7 °C 22.7 °C 1010.5 hPa NE 15.6 km/h 27.4 km/h 52.6% 0.0 mm
14:59 34 °C 22.8 °C 1010.5 hPa NE 15.1 km/h 24.1 km/h 52.4% 0.0 mm
15:04 34 °C 22.8 °C 1010.5 hPa NE 13 km/h 22.5 km/h 51.9% 0.0 mm
15:09 33.9 °C 22.8 °C 1010.3 hPa NE 13.5 km/h 27.4 km/h 52.3% 0.0 mm
15:14 33.8 °C 22.9 °C 1010.3 hPa NNE 15.6 km/h 28.2 km/h 52.9% 0.0 mm
15:19 33.8 °C 22.9 °C 1010.3 hPa NE 15.9 km/h 27.8 km/h 52.9% 0.0 mm
15:24 33.8 °C 22.8 °C 1010.1 hPa NE 17.2 km/h 36.2 km/h 52.6% 0.0 mm
15:29 33.8 °C 22.8 °C 1010.0 hPa NE 17.1 km/h 37 km/h 52.5% 0.0 mm
15:34 33.8 °C 22.9 °C 1010.0 hPa NE 16.4 km/h 37 km/h 53.2% 0.0 mm
15:39 33.7 °C 22.9 °C 1010.0 hPa NE 17 km/h 32.2 km/h 53.4% 0.0 mm
15:44 33.8 °C 23 °C 1010.0 hPa NE 19.8 km/h 32.3 km/h 53.1% 0.0 mm
15:49 33.9 °C 23 °C 1010.0 hPa NE 19.6 km/h 33.8 km/h 53% 0.0 mm
15:54 34 °C 22.8 °C 1009.9 hPa NE 18.4 km/h 33.8 km/h 52.1% 0.0 mm
15:59 33.9 °C 22.7 °C 1009.9 hPa NE 18.6 km/h 33.3 km/h 52.2% 0.0 mm
16:04 33.9 °C 22.8 °C 1009.9 hPa NE 19.8 km/h 33.8 km/h 52.4% 0.0 mm
16:09 34.1 °C 22.8 °C 1009.8 hPa ENE 19.3 km/h 33.8 km/h 51.9% 0.0 mm
16:14 34.3 °C 22.8 °C 1009.8 hPa ENE 16.4 km/h 25.9 km/h 51.2% 0.0 mm
16:19 34.3 °C 22.6 °C 1009.8 hPa Este 16.2 km/h 25.7 km/h 50.7% 0.0 mm
16:24 34.4 °C 22.6 °C 1009.7 hPa Este 13.7 km/h 20.9 km/h 50.4% 0.0 mm
16:29 34.6 °C 22.6 °C 1009.7 hPa Este 13.4 km/h 26.2 km/h 49.8% 0.0 mm
16:34 34.6 °C 22.6 °C 1009.7 hPa Este 11.9 km/h 25.7 km/h 49.6% 0.0 mm
16:39 34.5 °C 22.5 °C 1009.6 hPa ENE 11.8 km/h 24.1 km/h 50% 0.0 mm
16:44 34.3 °C 22.5 °C 1009.6 hPa Este 11.1 km/h 25.9 km/h 50.2% 0.0 mm
16:49 34.2 °C 22.5 °C 1009.6 hPa ENE 11.2 km/h 25.7 km/h 50.8% 0.0 mm
16:54 33.9 °C 22.4 °C 1009.6 hPa ENE 11.9 km/h 28.2 km/h 51% 0.0 mm
16:59 33.8 °C 22.5 °C 1009.6 hPa Este 12.3 km/h 27.4 km/h 51.8% 0.0 mm
17:04 33.9 °C 22.4 °C 1009.7 hPa ENE 14 km/h 22.5 km/h 51.1% 0.0 mm
17:09 33.9 °C 22.6 °C 1009.7 hPa ENE 13.7 km/h 22.5 km/h 51.7% 0.0 mm
17:14 33.9 °C 22.6 °C 1009.7 hPa Este 12.2 km/h 25.9 km/h 52% 0.0 mm
17:19 33.8 °C 22.6 °C 1009.7 hPa Este 12 km/h 25.7 km/h 51.9% 0.0 mm
17:24 33.8 °C 22.6 °C 1009.6 hPa ENE 11.1 km/h 22.5 km/h 52% 0.0 mm
17:29 33.7 °C 22.5 °C 1009.6 hPa Este 11.2 km/h 25.9 km/h 52% 0.0 mm
17:34 33.4 °C 22.5 °C 1009.6 hPa ESE 11.9 km/h 26.2 km/h 52.8% 0.0 mm
17:39 33.2 °C 22.4 °C 1009.5 hPa ESE 12.5 km/h 26.2 km/h 53.1% 0.0 mm
17:44 33.1 °C 22.2 °C 1009.5 hPa Este 15.6 km/h 25.7 km/h 53% 0.0 mm
17:49 33.2 °C 22.4 °C 1009.5 hPa ENE 15 km/h 22.5 km/h 53.5% 0.0 mm
17:54 33.3 °C 22.4 °C 1009.4 hPa ENE 11.9 km/h 20.9 km/h 53% 0.0 mm
17:59 33.1 °C 22.5 °C 1009.4 hPa NE 11.7 km/h 26.2 km/h 53.7% 0.0 mm
18:04 33 °C 22.5 °C 1009.4 hPa Este 11.1 km/h 25.7 km/h 54% 0.0 mm
18:09 32.8 °C 22.4 °C 1009.4 hPa ENE 11 km/h 20.9 km/h 54.4% 0.0 mm
18:14 32.9 °C 22.7 °C 1009.4 hPa ENE 10.3 km/h 20.9 km/h 55% 0.0 mm
18:19 32.8 °C 22.8 °C 1009.4 hPa ENE 10 km/h 19.3 km/h 55.5% 0.0 mm
18:24 32.8 °C 22.8 °C 1009.3 hPa Este 8.7 km/h 22.2 km/h 55.7% 0.0 mm
18:29 32.6 °C 22.9 °C 1009.3 hPa ENE 9 km/h 22.5 km/h 56.5% 0.0 mm
18:34 32.4 °C 22.9 °C 1009.3 hPa ENE 10.3 km/h 20.9 km/h 57.3% 0.0 mm
18:39 32.1 °C 22.9 °C 1009.3 hPa NE 11.1 km/h 26.2 km/h 58.4% 0.0 mm
18:44 31.9 °C 22.9 °C 1009.3 hPa NE 14.8 km/h 28.2 km/h 59% 0.0 mm
18:49 31.7 °C 22.7 °C 1009.3 hPa NE 14.9 km/h 28.2 km/h 59% 0.0 mm
18:54 31.7 °C 22.7 °C 1009.3 hPa NE 15.6 km/h 27.4 km/h 59.3% 0.0 mm
18:59 31.6 °C 22.7 °C 1009.3 hPa NE 15.2 km/h 24.5 km/h 59.2% 0.0 mm
19:04 31.6 °C 22.7 °C 1009.3 hPa NE 13.7 km/h 24.1 km/h 59.3% 0.0 mm
19:09 31.4 °C 22.7 °C 1009.3 hPa NE 14 km/h 27 km/h 60% 0.0 mm
19:14 31.2 °C 22.5 °C 1009.3 hPa NNE 16.1 km/h 27.8 km/h 60% 0.0 mm
19:19 31.1 °C 22.5 °C 1009.3 hPa NE 16.3 km/h 27.8 km/h 60.3% 0.0 mm
19:24 30.9 °C 22.5 °C 1009.2 hPa NE 17.2 km/h 27.4 km/h 60.9% 0.0 mm
19:29 30.9 °C 22.5 °C 1009.2 hPa NE 17 km/h 29.8 km/h 60.9% 0.0 mm
19:34 30.8 °C 21.9 °C 1009.2 hPa NE 15.6 km/h 30.6 km/h 59% 0.0 mm
19:39 30.6 °C 21.7 °C 1009.2 hPa NE 16 km/h 30.6 km/h 59.1% 0.0 mm
19:44 30.5 °C 21.8 °C 1009.2 hPa NE 18 km/h 29 km/h 59.8% 0.0 mm
19:49 30.3 °C 21.8 °C 1009.2 hPa NE 17.7 km/h 29.6 km/h 60.2% 0.0 mm
19:54 30.2 °C 21.8 °C 1009.1 hPa NE 16.1 km/h 29.6 km/h 61% 0.0 mm
19:59 30 °C 21.8 °C 1009.1 hPa NE 16.5 km/h 29.8 km/h 61.5% 0.0 mm
20:04 29.9 °C 21.8 °C 1009.1 hPa NE 18.4 km/h 30.6 km/h 62% 0.0 mm
20:09 29.8 °C 21.8 °C 1009.0 hPa NE 18.1 km/h 29.6 km/h 62% 0.0 mm
20:14 29.7 °C 21.9 °C 1009.0 hPa NE 16.4 km/h 29 km/h 63% 0.0 mm
20:19 29.5 °C 21.7 °C 1009.3 hPa NE 16.6 km/h 27.4 km/h 63% 0.0 mm
20:24 29.5 °C 21.7 °C 1009.3 hPa NE 17.2 km/h 26.2 km/h 63% 0.0 mm
20:29 29.4 °C 21.7 °C 1009.3 hPa NE 17 km/h 28.2 km/h 63% 0.0 mm
20:34 29.3 °C 21.6 °C 1009.5 hPa NE 16.1 km/h 27.4 km/h 63.3% 0.0 mm
20:39 29.2 °C 21.6 °C 1009.5 hPa NE 15.7 km/h 25.9 km/h 63.6% 0.0 mm
20:44 29.1 °C 21.3 °C 1009.5 hPa NE 14 km/h 27.8 km/h 63% 0.0 mm
20:49 28.9 °C 21.2 °C 1009.6 hPa NE 14.3 km/h 27.4 km/h 63% 0.0 mm
20:54 28.8 °C 21.1 °C 1009.6 hPa NE 15.6 km/h 27 km/h 63% 0.0 mm
20:59 28.7 °C 21 °C 1009.6 hPa NE 15.7 km/h 27.8 km/h 63% 0.0 mm
21:04 28.7 °C 20.9 °C 1009.8 hPa NE 16.1 km/h 27.4 km/h 63% 0.0 mm
21:09 28.6 °C 21 °C 1009.8 hPa NE 15.6 km/h 25.1 km/h 63.7% 0.0 mm
21:14 28.5 °C 21.2 °C 1009.8 hPa NE 13 km/h 25.9 km/h 64.8% 0.0 mm
21:19 28.3 °C 21.4 °C 1010.0 hPa NE 13.3 km/h 22.5 km/h 65.9% 0.0 mm
21:24 28.3 °C 21.3 °C 1010.0 hPa NE 14.8 km/h 20.9 km/h 66% 0.0 mm
21:29 28.3 °C 21.4 °C 1010.0 hPa NE 14.4 km/h 20.9 km/h 66.5% 0.0 mm
21:34 28.2 °C 21.2 °C 1010.3 hPa NE 11.9 km/h 19.3 km/h 66% 0.0 mm
21:39 28.2 °C 21.2 °C 1010.3 hPa NE 11.5 km/h 18.5 km/h 66% 0.0 mm
21:44 28.2 °C 21.2 °C 1010.3 hPa ENE 9.5 km/h 19.3 km/h 66% 0.0 mm
21:49 28.3 °C 21.4 °C 1010.6 hPa ESE 9.1 km/h 14.8 km/h 66.6% 0.0 mm
21:54 28.3 °C 21.6 °C 1010.6 hPa ESE 6.9 km/h 18.3 km/h 67.2% 0.0 mm
21:59 28.2 °C 21.5 °C 1010.6 hPa ESE 7.5 km/h 24.1 km/h 67% 0.0 mm
22:04 28.1 °C 21.5 °C 1011.0 hPa Este 10 km/h 24.1 km/h 67.6% 0.0 mm
22:09 27.9 °C 21.5 °C 1011.0 hPa Este 10.3 km/h 20.4 km/h 68% 0.0 mm
22:14 27.8 °C 21.6 °C 1011.0 hPa Este 11.9 km/h 20.9 km/h 68.9% 0.0 mm
22:19 27.8 °C 21.7 °C 1011.2 hPa Este 11.6 km/h 20.4 km/h 69.6% 0.0 mm
22:24 27.7 °C 21.8 °C 1011.2 hPa Este 10.3 km/h 20.9 km/h 70.2% 0.0 mm
22:29 27.7 °C 21.9 °C 1011.2 hPa Este 10.2 km/h 17.7 km/h 71% 0.0 mm
22:34 27.7 °C 21.9 °C 1011.3 hPa ESE 9.5 km/h 16.7 km/h 71% 0.0 mm
22:39 27.7 °C 21.9 °C 1011.3 hPa Este 9.3 km/h 16.7 km/h 71% 0.0 mm
22:44 27.6 °C 21.9 °C 1011.3 hPa Este 8.4 km/h 16.7 km/h 71.1% 0.0 mm
22:49 27.6 °C 22.1 °C 1011.3 hPa ENE 8.2 km/h 16.1 km/h 72% 0.0 mm
22:54 27.5 °C 22 °C 1011.3 hPa NE 7.6 km/h 12.9 km/h 72% 0.0 mm
22:59 27.5 °C 22 °C 1011.3 hPa NE 7.2 km/h 11.9 km/h 72% 0.0 mm
23:04 27.4 °C 21.9 °C 1011.4 hPa NE 5.8 km/h 13.7 km/h 72% 0.0 mm
23:09 27.3 °C 21.9 °C 1011.4 hPa NE 6.3 km/h 14.8 km/h 72% 0.0 mm
23:14 27.3 °C 21.6 °C 1011.4 hPa NNE 8.7 km/h 14.5 km/h 71.1% 0.0 mm
23:19 27.2 °C 21.5 °C 1011.5 hPa NE 8.5 km/h 12.9 km/h 71.1% 0.0 mm
23:24 27.1 °C 21.6 °C 1011.5 hPa NNE 7.6 km/h 13 km/h 71.9% 0.0 mm
23:29 27.1 °C 21.6 °C 1011.5 hPa NE 7.7 km/h 13 km/h 72.1% 0.0 mm
23:34 27.1 °C 21.8 °C 1011.6 hPa NE 8.4 km/h 14.8 km/h 73.3% 0.0 mm
23:39 26.9 °C 21.9 °C 1011.6 hPa NE 8.4 km/h 14.5 km/h 74.2% 0.0 mm
23:44 26.8 °C 22.1 °C 1011.6 hPa NE 8.7 km/h 14.8 km/h 75.3% 0.0 mm
23:49 26.8 °C 22.2 °C 1011.6 hPa NE 8.7 km/h 14.8 km/h 76% 0.0 mm
23:54 26.8 °C 22.3 °C 1011.6 hPa NE 8.7 km/h 14.8 km/h 76.4% 0.0 mm
23:59 26.7 °C 22.4 °C 1011.6 hPa NE 8.9 km/h 14.8 km/h 77.2% 0.0 mm
Murcia-Puente Tocinos, Espa?a
Compliments of Weather Underground - 3.25 mb

La estación de MeteoMurcia.com, publica sus datos en los siguientes proyectos:

Weather Underground PWS IMURCIAP2 Meteoclimatic www.awekas.at

Web Analytics

Clicky